首页
METAR-TAF:

METAR-TAF

机场 :

拉巴斯, 玻利维亚

奧爾托國際機場

纬度: 16-31S, 经度: 068-11W, 海拔: 4058米

当前天气观测

该预报发布于44分钟前的14:00 UTC
风速4节,风向西南
温度 8°C
湿度 66%
气压 1042 hPa
能见度10公里或以上
散云层高于1300英尺
多云层高于20000英尺

METAR: SLLP 251400Z 23004KT 9999 SCT013 BKN200 08/02 Q1042

时间: 10:44 (14:44 UTC)

预报

该预报发布于3小时和44分钟前的11:00 UTC
预报有效从25日的 12点(UTC)到 26日的 12点(UTC)
风速7节,风向
能见度10公里或以上
散云层高于1300英尺
成为
从 25日的 14点(UTC)到 25日的 18点(UTC)
风速12节,风向东南
散云层高于1700英尺
短暂存在
从 25日的 19点(UTC)到 25日的 22点(UTC)
少量云层高于2000英尺, 积雨云.
成为
从 25日的 23点(UTC)到 日的 点(UTC)
风速7节,风向东北
能見度: 2603
少量云层高于1500英尺
短暂存在
从 26日的 05点(UTC)到 26日的 09点(UTC)
能見度: 3000
少量云层高于200英尺
散云层高于1300英尺
附近有雾

TAF: SLLP 251100Z 2512/2612 08007KT 9999 SCT013 TX17/2520Z TN03/2610Z BECMG 2514/2518 13012KT SCT017 TEMPO 2519/2522 FEW020CB BECMG 2523/ 2603 04007KT FEW015 TEMPO 2605/2609 3000E VCFG FEW002 SCT013

超过4000个机场的气象观测和天气预报(METAR&TAF报告)。

可查询的气象台以黄色和红色小点在地图上表示。

将鼠标移到小点上方,可查看气象台名称。

然后点击查看天气观测和预报。

如需切换地图:点击带黑十字的绿色按钮放大地图;点击带横线的绿色按钮缩小地图;或者点击绿色箭头查看邻近地区的地图。


METAR-TAF: